Time;durP1;ratioP1;P1;durP2;ratioP2;P2;SDS_P1;SDS_P2;PMS_P1;PMS_P2;Temp;Humidity;BMP_temperature;BMP_pressure;BME280_temperature;BME280_humidity;BME280_pressure;Samples;Min_cycle;Max_cycle;Signal;HPM_P1;HPM_P2
2023/01/31 00:00:22;;;;;;;16.63;10.33;;;;;;;;;;5004529;28;20180;-75
2023/01/31 00:02:48;;;;;;;15.63;9.53;;;;;;;;;;5006095;28;20195;-71
2023/01/31 00:05:15;;;;;;;16.30;9.67;;;;;;;;;;5003331;28;20297;-71
2023/01/31 00:07:41;;;;;;;19.23;10.27;;;;;;;;;;5000342;28;20187;-71
2023/01/31 00:10:08;;;;;;;14.83;10.30;;;;;;;;;;5005407;28;20183;-71
2023/01/31 00:12:34;;;;;;;16.13;10.33;;;;;;;;;;5002279;28;20183;-71
2023/01/31 00:15:00;;;;;;;15.30;9.90;;;;;;;;;;5003389;28;20211;-71
2023/01/31 00:17:27;;;;;;;16.67;8.97;;;;;;;;;;5000217;28;20555;-71
2023/01/31 00:19:53;;;;;;;15.23;9.33;;;;;;;;;;4997781;28;20333;-71
2023/01/31 00:22:19;;;;;;;15.23;9.60;;;;;;;;;;5001118;28;20722;-70
2023/01/31 00:24:45;;;;;;;13.60;9.40;;;;;;;;;;5002449;28;20273;-71
2023/01/31 00:27:12;;;;;;;14.47;9.60;;;;;;;;;;5004419;28;20222;-71
2023/01/31 00:29:39;;;;;;;17.17;10.10;;;;;;;;;;4999121;28;20945;-71
2023/01/31 00:32:05;;;;;;;17.83;11.33;;;;;;;;;;5005021;28;20698;-71
2023/01/31 00:34:32;;;;;;;16.53;10.60;;;;;;;;;;5002200;28;20219;-71
2023/01/31 00:36:58;;;;;;;15.63;9.90;;;;;;;;;;5003091;28;20211;-71
2023/01/31 00:39:24;;;;;;;18.43;10.73;;;;;;;;;;5001717;28;20718;-71
2023/01/31 00:41:50;;;;;;;17.60;10.70;;;;;;;;;;5003378;28;20561;-71
2023/01/31 00:44:16;;;;;;;19.67;11.70;;;;;;;;;;5003708;28;20274;-71
2023/01/31 00:46:42;;;;;;;18.17;10.87;;;;;;;;;;5000800;28;20203;-72
2023/01/31 00:49:08;;;;;;;18.43;10.47;;;;;;;;;;5000932;28;20179;-71
2023/01/31 00:51:35;;;;;;;15.53;9.50;;;;;;;;;;5001712;28;20192;-71
2023/01/31 00:54:01;;;;;;;16.13;10.50;;;;;;;;;;5001661;28;20584;-71
2023/01/31 00:56:27;;;;;;;15.63;9.30;;;;;;;;;;4999033;28;20774;-71
2023/01/31 00:58:54;;;;;;;18.73;10.53;;;;;;;;;;5002989;28;20225;-71
2023/01/31 01:01:25;;;;;;;18.83;9.90;;;;;;;;;;4997949;28;20187;-71
2023/01/31 01:03:52;;;;;;;17.60;9.77;;;;;;;;;;4998466;28;20187;-71
2023/01/31 01:06:19;;;;;;;17.67;10.60;;;;;;;;;;4998549;28;20591;-71
2023/01/31 01:08:45;;;;;;;18.50;10.67;;;;;;;;;;4996751;28;20253;-71
2023/01/31 01:11:19;;;;;;;19.17;11.70;;;;;;;;;;4998635;28;20202;-71
2023/01/31 01:13:45;;;;;;;16.03;11.13;;;;;;;;;;5000968;28;20203;-71
2023/01/31 01:16:20;;;;;;;15.77;10.10;;;;;;;;;;4997780;28;20211;-71
2023/01/31 01:18:48;;;;;;;18.73;11.70;;;;;;;;;;5001570;28;20662;-71
2023/01/31 01:21:18;;;;;;;17.17;11.23;;;;;;;;;;5000358;28;20274;-71
2023/01/31 01:23:46;;;;;;;16.93;10.47;;;;;;;;;;4998755;28;20186;-71
2023/01/31 01:26:14;;;;;;;18.73;11.27;;;;;;;;;;4999118;28;20234;-71
2023/01/31 01:28:41;;;;;;;20.23;11.93;;;;;;;;;;4999599;28;20523;-71
2023/01/31 01:31:07;;;;;;;20.20;12.70;;;;;;;;;;4998885;28;20179;-71
2023/01/31 01:33:34;;;;;;;19.17;12.43;;;;;;;;;;4999090;28;20219;-71
2023/01/31 01:36:04;;;;;;;20.03;12.30;;;;;;;;;;4982275;28;20206;-71
2023/01/31 01:38:30;;;;;;;30.60;15.93;;;;;;;;;;5001867;28;20797;-71
2023/01/31 01:40:56;;;;;;;22.63;14.33;;;;;;;;;;5002108;28;20183;-71
2023/01/31 01:43:38;;;;;;;21.87;11.77;;;;;;;;;;5002764;28;20191;-71
2023/01/31 01:46:04;;;;;;;24.47;13.37;;;;;;;;;;5002943;28;20300;-74
2023/01/31 01:48:31;;;;;;;24.37;14.80;;;;;;;;;;5000661;28;20785;-74
2023/01/31 01:50:57;;;;;;;21.97;12.73;;;;;;;;;;5002599;28;20190;-73
2023/01/31 01:53:27;;;;;;;27.67;13.77;;;;;;;;;;5002875;28;20199;-74
2023/01/31 01:55:55;;;;;;;22.70;13.43;;;;;;;;;;4999418;28;20207;-73
2023/01/31 01:58:31;;;;;;;26.83;13.73;;;;;;;;;;5015102;28;20202;-74
2023/01/31 02:00:57;;;;;;;25.03;12.20;;;;;;;;;;5000203;28;20185;-72
2023/01/31 02:03:23;;;;;;;21.97;12.90;;;;;;;;;;5002265;28;20845;-71
2023/01/31 02:05:52;;;;;;;26.07;12.13;;;;;;;;;;5001120;28;20203;-71
2023/01/31 02:08:19;;;;;;;26.67;16.10;;;;;;;;;;4998391;28;20182;-71
2023/01/31 02:10:51;;;;;;;23.63;15.23;;;;;;;;;;5000063;28;20191;-72
2023/01/31 02:13:18;;;;;;;21.17;12.53;;;;;;;;;;4999283;28;20195;-71
2023/01/31 02:15:45;;;;;;;18.97;11.33;;;;;;;;;;4999547;28;20198;-72
2023/01/31 02:18:12;;;;;;;21.27;11.83;;;;;;;;;;4998372;28;20813;-72
2023/01/31 02:20:41;;;;;;;16.50;11.03;;;;;;;;;;5001821;28;20183;-72
2023/01/31 02:23:16;;;;;;;20.33;11.63;;;;;;;;;;5001009;28;20233;-72
2023/01/31 02:26:10;;;;;;;25.40;12.93;;;;;;;;;;4998721;28;20191;-72
2023/01/31 02:28:36;;;;;;;23.00;12.07;;;;;;;;;;4997579;28;20179;-72
2023/01/31 02:31:02;;;;;;;33.10;14.37;;;;;;;;;;4997883;28;20183;-72
2023/01/31 02:33:35;;;;;;;29.27;13.93;;;;;;;;;;5000519;28;20272;-72
2023/01/31 02:36:40;;;;;;;24.23;13.23;;;;;;;;;;5000148;28;21219;-72
2023/01/31 02:39:27;;;;;;;26.70;13.40;;;;;;;;;;4928272;28;20181;-72
2023/01/31 02:41:54;;;;;;;34.33;13.10;;;;;;;;;;4926010;29;20203;-72
2023/01/31 02:47:24;;;;;;;21.17;11.47;;;;;;;;;;5020814;28;20513;-72
2023/01/31 02:50:12;;;;;;;24.37;12.70;;;;;;;;;;5003653;28;20190;-72
2023/01/31 02:52:48;;;;;;;21.57;11.87;;;;;;;;;;5015823;28;20186;-72
2023/01/31 02:58:20;;;;;;;28.77;14.00;;;;;;;;;;5005127;28;20218;-72
2023/01/31 03:00:48;;;;;;;20.67;11.73;;;;;;;;;;5005168;28;20230;-72
2023/01/31 03:03:40;;;;;;;29.27;13.93;;;;;;;;;;5003771;28;20729;-72
2023/01/31 03:06:24;;;;;;;20.57;11.80;;;;;;;;;;5004166;28;20290;-71
2023/01/31 03:08:55;;;;;;;20.93;11.80;;;;;;;;;;5006660;28;20272;-72
2023/01/31 03:11:25;;;;;;;21.13;11.40;;;;;;;;;;4999707;28;20183;-72
2023/01/31 03:13:56;;;;;;;19.00;10.10;;;;;;;;;;5003098;28;20556;-72
2023/01/31 03:19:34;;;;;;;18.47;9.53;;;;;;;;;;5003941;28;20832;-72
2023/01/31 03:22:03;;;;;;;17.40;10.00;;;;;;;;;;4990727;28;20241;-72
2023/01/31 03:24:30;;;;;;;19.33;9.73;;;;;;;;;;4999804;28;20234;-72
2023/01/31 03:26:58;;;;;;;15.87;9.53;;;;;;;;;;5000597;28;20257;-72
2023/01/31 03:29:25;;;;;;;16.17;9.53;;;;;;;;;;5002198;28;20241;-72
2023/01/31 03:32:00;;;;;;;17.97;9.33;;;;;;;;;;5016337;28;20207;-72
2023/01/31 03:34:26;;;;;;;16.43;9.40;;;;;;;;;;4999413;28;20681;-72
2023/01/31 03:36:56;;;;;;;22.43;10.60;;;;;;;;;;5001067;28;20228;-72
2023/01/31 03:39:54;;;;;;;21.67;10.97;;;;;;;;;;5003685;28;20215;-72
2023/01/31 03:42:29;;;;;;;18.97;10.00;;;;;;;;;;5001534;28;20581;-71
2023/01/31 03:44:59;;;;;;;16.47;9.40;;;;;;;;;;5016480;28;20194;-72
2023/01/31 03:47:31;;;;;;;20.83;9.27;;;;;;;;;;5000486;28;20266;-71
2023/01/31 03:49:59;;;;;;;34.80;13.93;;;;;;;;;;5002399;28;20184;-72
2023/01/31 03:52:28;;;;;;;38.23;14.60;;;;;;;;;;5000589;28;21248;-72
2023/01/31 03:54:59;;;;;;;23.47;10.47;;;;;;;;;;5002221;28;20206;-71
2023/01/31 03:57:33;;;;;;;21.13;10.57;;;;;;;;;;5002289;28;20190;-72
2023/01/31 04:00:00;;;;;;;27.50;11.90;;;;;;;;;;5000398;28;20179;-72
2023/01/31 04:02:30;;;;;;;19.10;9.70;;;;;;;;;;5000530;28;20266;-71
2023/01/31 04:05:03;;;;;;;18.33;9.80;;;;;;;;;;5004644;28;20187;-71
2023/01/31 04:07:31;;;;;;;17.23;8.90;;;;;;;;;;5002663;28;20190;-72
2023/01/31 04:09:57;;;;;;;19.80;9.60;;;;;;;;;;4997185;28;20276;-71
2023/01/31 04:12:24;;;;;;;18.70;9.77;;;;;;;;;;5003192;28;20195;-71
2023/01/31 04:14:50;;;;;;;17.90;9.17;;;;;;;;;;5005454;28;21544;-72
2023/01/31 04:17:16;;;;;;;24.27;10.47;;;;;;;;;;5003270;28;20566;-71
2023/01/31 04:19:42;;;;;;;18.10;9.73;;;;;;;;;;4999221;28;20203;-72
2023/01/31 04:22:08;;;;;;;17.40;8.97;;;;;;;;;;5002936;28;20654;-71
2023/01/31 04:24:35;;;;;;;18.27;10.23;;;;;;;;;;5003905;28;20377;-71
2023/01/31 04:27:01;;;;;;;15.70;9.50;;;;;;;;;;5002385;28;20282;-72
2023/01/31 04:29:27;;;;;;;20.03;9.97;;;;;;;;;;5002422;28;20666;-71
2023/01/31 04:31:53;;;;;;;15.70;8.80;;;;;;;;;;5001507;28;20286;-71
2023/01/31 04:34:19;;;;;;;14.50;8.67;;;;;;;;;;5001066;28;20207;-72
2023/01/31 04:36:45;;;;;;;19.77;10.47;;;;;;;;;;5005699;28;20616;-71
2023/01/31 04:39:13;;;;;;;19.03;10.30;;;;;;;;;;5001299;28;20194;-72
2023/01/31 04:41:39;;;;;;;14.57;8.83;;;;;;;;;;5004144;28;20217;-71
2023/01/31 04:44:05;;;;;;;22.33;11.17;;;;;;;;;;5004016;28;20198;-71
2023/01/31 04:46:31;;;;;;;17.27;9.57;;;;;;;;;;5003741;28;20321;-72
2023/01/31 04:48:57;;;;;;;17.93;10.37;;;;;;;;;;5002890;28;20318;-72
2023/01/31 04:51:23;;;;;;;17.90;9.63;;;;;;;;;;5002151;28;20195;-71
2023/01/31 04:53:50;;;;;;;21.93;9.57;;;;;;;;;;5000476;28;20671;-71
2023/01/31 04:56:16;;;;;;;16.10;9.50;;;;;;;;;;5004302;28;20551;-71
2023/01/31 04:58:42;;;;;;;14.10;9.10;;;;;;;;;;5004720;28;20666;-71
2023/01/31 05:01:09;;;;;;;16.67;9.30;;;;;;;;;;5003588;28;20624;-72
2023/01/31 05:03:35;;;;;;;19.10;9.50;;;;;;;;;;5001295;28;20713;-72
2023/01/31 05:06:01;;;;;;;17.77;9.53;;;;;;;;;;5001793;28;20681;-72
2023/01/31 05:08:28;;;;;;;18.20;9.47;;;;;;;;;;5001059;28;20198;-71
2023/01/31 05:10:58;;;;;;;17.00;10.73;;;;;;;;;;4998062;28;20430;-72
2023/01/31 05:13:24;;;;;;;16.60;8.87;;;;;;;;;;4999589;28;20242;-71
2023/01/31 05:15:50;;;;;;;14.83;8.80;;;;;;;;;;5003778;28;20231;-71
2023/01/31 05:18:17;;;;;;;16.43;9.40;;;;;;;;;;4999910;28;20190;-71
2023/01/31 05:20:43;;;;;;;19.10;9.60;;;;;;;;;;4998809;28;20190;-71
2023/01/31 05:23:10;;;;;;;16.50;8.90;;;;;;;;;;4999995;28;20203;-71
2023/01/31 05:25:37;;;;;;;18.17;9.80;;;;;;;;;;5001132;28;20252;-71
2023/01/31 05:28:03;;;;;;;20.60;9.07;;;;;;;;;;4998792;28;20227;-71
2023/01/31 05:30:30;;;;;;;19.17;10.17;;;;;;;;;;4999101;28;20845;-72
2023/01/31 05:32:56;;;;;;;20.07;9.70;;;;;;;;;;5002500;28;20183;-71
2023/01/31 05:35:22;;;;;;;19.43;9.57;;;;;;;;;;5000945;28;20732;-72
2023/01/31 05:37:48;;;;;;;19.57;9.10;;;;;;;;;;4996219;28;20183;-72
2023/01/31 05:40:17;;;;;;;22.63;10.47;;;;;;;;;;4999817;28;20184;-71
2023/01/31 05:42:44;;;;;;;18.90;9.10;;;;;;;;;;4998329;28;20826;-71
2023/01/31 05:45:11;;;;;;;25.38;11.52;;;;;;;;;;4998013;28;20423;-72
2023/01/31 05:47:37;;;;;;;20.80;10.43;;;;;;;;;;4997963;28;20192;-71
2023/01/31 05:50:03;;;;;;;23.40;11.35;;;;;;;;;;4998093;28;20481;-71
2023/01/31 05:52:30;;;;;;;19.83;9.30;;;;;;;;;;4999932;28;20211;-71
2023/01/31 05:54:56;;;;;;;19.23;9.30;;;;;;;;;;5001653;28;20301;-71
2023/01/31 05:57:22;;;;;;;19.33;9.53;;;;;;;;;;5003862;28;20286;-71
2023/01/31 05:59:48;;;;;;;14.67;8.93;;;;;;;;;;4997182;28;20658;-71
2023/01/31 06:02:14;;;;;;;16.67;8.57;;;;;;;;;;5000247;28;20275;-71
2023/01/31 06:04:41;;;;;;;17.77;8.77;;;;;;;;;;4998694;28;20187;-71
2023/01/31 06:07:07;;;;;;;16.67;9.10;;;;;;;;;;5001185;28;20195;-71
2023/01/31 06:09:34;;;;;;;21.03;9.60;;;;;;;;;;4999829;28;20230;-71
2023/01/31 06:12:00;;;;;;;18.95;9.93;;;;;;;;;;5004534;28;20801;-72
2023/01/31 06:14:26;;;;;;;17.17;8.70;;;;;;;;;;5006116;28;20261;-71
2023/01/31 06:16:52;;;;;;;15.70;9.27;;;;;;;;;;4998965;28;20213;-71
2023/01/31 06:19:20;;;;;;;17.67;8.67;;;;;;;;;;5001715;28;20182;-71
2023/01/31 06:21:46;;;;;;;18.83;10.00;;;;;;;;;;5005720;28;20179;-72
2023/01/31 06:24:13;;;;;;;18.80;10.67;;;;;;;;;;5001241;28;20616;-71
2023/01/31 06:26:39;;;;;;;16.87;9.17;;;;;;;;;;5002052;28;20658;-72
2023/01/31 06:29:05;;;;;;;20.73;10.67;;;;;;;;;;5003928;28;20183;-72
2023/01/31 06:31:31;;;;;;;18.37;9.93;;;;;;;;;;4999423;28;20187;-71
2023/01/31 06:33:57;;;;;;;20.27;9.67;;;;;;;;;;5001246;28;20207;-71
2023/01/31 06:36:24;;;;;;;19.97;10.50;;;;;;;;;;5002754;28;20342;-72
2023/01/31 06:38:51;;;;;;;19.20;9.97;;;;;;;;;;5005324;28;20273;-75
2023/01/31 06:41:17;;;;;;;26.47;11.33;;;;;;;;;;5004591;28;20715;-75
2023/01/31 06:43:44;;;;;;;22.08;13.00;;;;;;;;;;5008378;28;20414;-72
2023/01/31 06:46:10;;;;;;;19.57;11.90;;;;;;;;;;5006733;28;20214;-73
2023/01/31 06:48:36;;;;;;;22.90;14.40;;;;;;;;;;5001751;28;20489;-76
2023/01/31 06:51:02;;;;;;;27.73;13.03;;;;;;;;;;5001378;28;20206;-73
2023/01/31 06:53:28;;;;;;;22.67;12.73;;;;;;;;;;5004506;28;20296;-75
2023/01/31 06:55:54;;;;;;;25.23;13.03;;;;;;;;;;5003298;28;20668;-75
2023/01/31 06:58:20;;;;;;;21.47;12.53;;;;;;;;;;5008641;28;20180;-72
2023/01/31 07:00:46;;;;;;;24.80;13.37;;;;;;;;;;5002984;28;20183;-72
2023/01/31 07:03:12;;;;;;;21.97;13.03;;;;;;;;;;5005102;28;20703;-72
2023/01/31 07:05:39;;;;;;;22.60;11.77;;;;;;;;;;5002913;28;20695;-72
2023/01/31 07:08:05;;;;;;;26.43;12.67;;;;;;;;;;5005438;28;20197;-72
2023/01/31 07:10:31;;;;;;;20.30;12.80;;;;;;;;;;5000659;28;20194;-72
2023/01/31 07:12:58;;;;;;;23.63;12.43;;;;;;;;;;5005673;28;20187;-72
2023/01/31 07:15:24;;;;;;;24.00;13.47;;;;;;;;;;5006493;28;20219;-72
2023/01/31 07:17:50;;;;;;;21.70;12.40;;;;;;;;;;5004273;28;20194;-72
2023/01/31 07:20:16;;;;;;;27.97;12.63;;;;;;;;;;5004179;28;20214;-72
2023/01/31 07:22:43;;;;;;;23.00;12.53;;;;;;;;;;5003695;28;20179;-72
2023/01/31 07:25:09;;;;;;;24.60;13.10;;;;;;;;;;5002438;28;20225;-72
2023/01/31 07:27:35;;;;;;;25.00;13.07;;;;;;;;;;5006859;28;20194;-72
2023/01/31 07:30:01;;;;;;;24.20;13.23;;;;;;;;;;5006606;28;20199;-73
2023/01/31 07:32:28;;;;;;;21.43;13.30;;;;;;;;;;5005848;28;20216;-73
2023/01/31 07:34:55;;;;;;;24.60;12.90;;;;;;;;;;5002936;28;20294;-73
2023/01/31 07:37:21;;;;;;;20.40;12.37;;;;;;;;;;5005272;28;20188;-73
2023/01/31 07:39:47;;;;;;;24.80;13.63;;;;;;;;;;5003690;28;20262;-73
2023/01/31 07:42:13;;;;;;;24.17;13.00;;;;;;;;;;5006431;28;20222;-73
2023/01/31 07:44:40;;;;;;;28.10;13.13;;;;;;;;;;5004885;28;20194;-73
2023/01/31 07:47:06;;;;;;;23.30;13.03;;;;;;;;;;5003814;28;20234;-73
2023/01/31 07:49:33;;;;;;;22.43;12.20;;;;;;;;;;5007874;28;20629;-73
2023/01/31 07:52:00;;;;;;;25.17;13.37;;;;;;;;;;5002814;28;20214;-73
2023/01/31 07:54:26;;;;;;;21.63;12.30;;;;;;;;;;5002013;28;20234;-73
2023/01/31 07:56:53;;;;;;;23.20;12.50;;;;;;;;;;5004341;28;20892;-73
2023/01/31 07:59:19;;;;;;;24.17;13.13;;;;;;;;;;5004266;28;21560;-73
2023/01/31 08:04:30;;;;;;;24.07;12.20;;;;;;;;;;5002116;28;20186;-72
2023/01/31 08:06:58;;;;;;;19.90;11.83;;;;;;;;;;5000763;28;20203;-73
2023/01/31 08:09:24;;;;;;;20.30;11.73;;;;;;;;;;5001026;28;20245;-73
2023/01/31 08:11:51;;;;;;;24.90;12.47;;;;;;;;;;5003058;28;20559;-72
2023/01/31 08:14:19;;;;;;;22.23;11.57;;;;;;;;;;5004635;28;20203;-73
2023/01/31 08:16:46;;;;;;;21.93;12.13;;;;;;;;;;5000786;28;20281;-73
2023/01/31 08:19:12;;;;;;;26.80;14.23;;;;;;;;;;5002328;28;20187;-73
2023/01/31 08:21:38;;;;;;;24.80;12.20;;;;;;;;;;5001467;28;20744;-73
2023/01/31 08:24:04;;;;;;;19.23;11.50;;;;;;;;;;5003726;28;21035;-73
2023/01/31 08:26:31;;;;;;;24.20;13.43;;;;;;;;;;4999011;28;20206;-73
2023/01/31 08:28:58;;;;;;;21.40;12.30;;;;;;;;;;5001534;28;20179;-73
2023/01/31 08:31:26;;;;;;;21.40;11.80;;;;;;;;;;5002760;28;20884;-73
2023/01/31 08:33:52;;;;;;;25.03;13.10;;;;;;;;;;5001716;28;20232;-73
2023/01/31 08:36:32;;;;;;;22.03;12.63;;;;;;;;;;5000078;28;20226;-73
2023/01/31 08:38:58;;;;;;;21.47;11.70;;;;;;;;;;5000962;28;20186;-73
2023/01/31 08:41:25;;;;;;;26.50;12.57;;;;;;;;;;4998817;28;20217;-75
2023/01/31 08:43:54;;;;;;;26.77;12.93;;;;;;;;;;4997647;28;20187;-76
2023/01/31 08:46:21;;;;;;;25.47;12.63;;;;;;;;;;5001810;28;20238;-74
2023/01/31 08:48:53;;;;;;;23.63;12.63;;;;;;;;;;5069034;28;20588;-73
2023/01/31 08:51:20;;;;;;;28.63;13.30;;;;;;;;;;5070012;28;20657;-73
